Time;durP1;ratioP1;P1;durP2;ratioP2;P2;SDS_P1;SDS_P2;PMS_P1;PMS_P2;Temp;Humidity;BMP_temperature;BMP_pressure;BME280_temperature;BME280_humidity;BME280_pressure;Samples;Min_cycle;Max_cycle;Signal;HPM_P1;HPM_P2
2021/05/30 00:00:20;;;;;;;;;32.00;31.00;;;;;21.20;80.08;100493.63;5133399;27;9549;-77
2021/05/30 00:03:16;;;;;;;;;31.25;30.25;;;;;21.10;80.93;100497.31;5120032;27;8873;-77
2021/05/30 00:06:11;;;;;;;;;29.25;29.25;;;;;21.15;80.38;100502.47;5119263;27;8850;-77
2021/05/30 00:09:07;;;;;;;;;32.25;31.00;;;;;21.17;80.36;100505.72;5120220;27;8839;-76
2021/05/30 00:12:03;;;;;;;;;35.00;32.75;;;;;21.28;79.85;100508.50;5133150;27;8850;-77
2021/05/30 00:14:59;;;;;;;;;34.00;32.25;;;;;21.21;79.97;100516.94;5119525;27;8834;-77
2021/05/30 00:17:55;;;;;;;;;34.50;32.50;;;;;21.21;79.83;100514.91;5119620;27;8807;-77
2021/05/30 00:20:51;;;;;;;;;46.00;38.33;;;;;21.09;80.07;100515.38;5132877;27;8823;-77
2021/05/30 00:23:47;;;;;;;;;40.50;35.25;;;;;20.91;79.98;100509.78;5132195;27;8969;-77
2021/05/30 00:26:42;;;;;;;;;48.33;38.33;;;;;20.87;80.15;100513.84;5118866;27;8912;-77
2021/05/30 00:29:38;;;;;;;;;49.67;41.67;;;;;21.00;79.94;100514.97;5133546;27;9408;-77
2021/05/30 00:32:34;;;;;;;;;47.00;40.33;;;;;21.07;79.46;100515.75;5119493;27;10071;-77
2021/05/30 00:35:30;;;;;;;;;56.50;45.25;;;;;20.87;78.12;100513.84;5132744;27;9365;-77
2021/05/30 00:38:25;;;;;;;;;61.75;48.00;;;;;20.78;77.46;100514.25;5120007;27;9664;-76
2021/05/30 00:41:21;;;;;;;;;57.75;46.50;;;;;20.87;77.93;100523.06;5132109;27;9992;-77
2021/05/30 00:44:23;;;;;;;;;53.75;43.75;;;;;20.81;77.91;100516.25;5132873;27;9855;-77
2021/05/30 00:47:19;;;;;;;;;61.25;48.75;;;;;20.83;77.83;100517.44;5119203;27;9772;-77
2021/05/30 00:50:15;;;;;;;;;61.75;48.75;;;;;21.03;77.68;100517.81;5119050;27;9756;-77
2021/05/30 00:53:11;;;;;;;;;68.50;53.25;;;;;20.97;76.78;100529.88;5119046;27;9975;-76
2021/05/30 00:56:09;;;;;;;;;58.00;45.75;;;;;20.98;77.23;100526.63;5119150;27;10112;-77
2021/05/30 00:59:04;;;;;;;;;61.25;45.75;;;;;21.02;76.16;100535.09;5106665;27;9701;-77
2021/05/30 01:02:00;;;;;;;;;54.25;44.25;;;;;21.11;76.86;100538.25;5132788;27;10187;-76
2021/05/30 01:04:57;;;;;;;;;53.00;42.33;;;;;21.08;76.36;100545.47;5132713;27;9512;-76
2021/05/30 01:07:53;;;;;;;;;37.00;34.00;;;;;20.95;76.34;100546.34;5132644;27;9310;-76
2021/05/30 01:10:51;;;;;;;;;41.33;36.33;;;;;20.83;75.90;100551.16;5132167;27;8871;-76
2021/05/30 01:13:53;;;;;;;;;47.00;38.67;;;;;21.00;75.93;100548.72;5119496;27;9071;-77
2021/05/30 01:16:49;;;;;;;;;66.00;50.00;;;;;20.88;75.84;100549.97;5119270;27;8930;-76
2021/05/30 01:19:52;;;;;;;;;62.75;49.00;;;;;21.00;75.33;100540.28;5132834;27;9555;-76
2021/05/30 01:22:49;;;;;;;;;77.50;63.00;;;;;21.16;75.24;100542.66;5119203;27;10011;-76
2021/05/30 01:25:46;;;;;;;;;67.00;52.25;;;;;21.14;75.24;100543.06;5132307;27;10580;-77
2021/05/30 01:28:41;;;;;;;;;67.25;50.50;;;;;21.03;74.42;100542.31;5132398;27;10012;-76
2021/05/30 01:31:37;;;;;;;;;64.00;50.50;;;;;20.96;75.56;100536.69;5133284;27;10314;-76
2021/05/30 01:34:33;;;;;;;;;59.00;45.00;;;;;20.79;74.50;100527.91;5132126;27;9929;-76
2021/05/30 01:37:29;;;;;;;;;58.50;47.50;;;;;20.72;74.79;100536.34;5135326;27;9519;-76
2021/05/30 01:40:25;;;;;;;;;62.75;46.25;;;;;20.96;76.14;100537.50;5122524;27;9657;-76
2021/05/30 01:43:21;;;;;;;;;58.67;47.33;;;;;21.17;75.15;100538.66;5136013;27;9526;-76
2021/05/30 01:46:17;;;;;;;;;65.75;50.75;;;;;21.13;74.88;100529.41;5122350;27;9458;-76
2021/05/30 01:49:12;;;;;;;;;66.75;52.25;;;;;21.12;75.13;100534.25;5122738;27;9767;-76
2021/05/30 01:52:09;;;;;;;;;76.75;60.00;;;;;21.16;73.90;100537.81;5122299;27;10080;-76
2021/05/30 01:55:07;;;;;;;;;67.50;54.50;;;;;20.98;74.33;100543.50;5122150;27;10483;-76
2021/05/30 01:58:03;;;;;;;;;77.25;59.25;;;;;20.68;74.88;100541.16;5122275;27;10341;-77
2021/05/30 02:01:00;;;;;;;;;77.00;58.00;;;;;20.54;75.45;100544.78;5136531;27;10500;-76
2021/05/30 02:03:55;;;;;;;;;75.50;54.00;;;;;20.56;76.42;100538.78;5135560;27;10513;-76
2021/05/30 02:06:54;;;;;;;;;58.00;46.50;;;;;20.41;76.36;100548.38;5114968;28;10444;-76
2021/05/30 02:09:50;;;;;;;;;62.50;49.50;;;;;20.36;76.68;100545.97;5101389;28;9782;-76
2021/05/30 02:12:48;;;;;;;;;71.25;55.50;;;;;20.14;77.49;100551.56;5115532;28;10007;-76
2021/05/30 02:15:45;;;;;;;;;57.25;43.75;;;;;20.11;78.16;100557.19;5114746;28;10181;-76
2021/05/30 02:18:41;;;;;;;;;64.25;49.00;;;;;20.10;78.52;100545.16;5101154;28;10099;-76
2021/05/30 02:21:47;;;;;;;;;51.33;41.00;;;;;20.28;77.91;100545.97;5101368;28;9866;-77
2021/05/30 02:25:11;;;;;;;;;45.00;38.33;;;;;20.06;76.82;100555.56;5114775;28;9369;-76
2021/05/30 02:28:07;;;;;;;;;51.00;43.33;;;;;19.79;77.78;100562.75;5114568;28;9161;-76
2021/05/30 02:31:03;;;;;;;;;54.00;42.00;;;;;20.02;78.34;100566.00;5114775;28;10133;-77
2021/05/30 02:33:59;;;;;;;;;48.67;40.33;;;;;20.21;78.06;100568.41;5114394;28;9399;-76
2021/05/30 02:36:55;;;;;;;;;61.75;48.50;;;;;20.04;76.15;100577.63;5114684;28;9425;-76
2021/05/30 02:39:51;;;;;;;;;57.75;44.50;;;;;20.08;76.83;100578.41;5114535;28;9848;-76
2021/05/30 02:42:46;;;;;;;;;56.00;46.00;;;;;20.16;77.68;100577.22;5114542;28;10515;-77
2021/05/30 02:45:42;;;;;;;;;64.00;50.75;;;;;20.15;77.81;100588.84;5114523;28;9678;-77
2021/05/30 02:48:38;;;;;;;;;65.00;51.00;;;;;20.07;77.40;100587.25;5113644;28;10028;-77
2021/05/30 02:51:33;;;;;;;;;54.00;41.00;;;;;20.04;77.40;100590.84;5100899;28;10162;-76
2021/05/30 02:54:29;;;;;;;;;23.33;20.00;;;;;20.13;77.46;100588.47;5122919;27;9485;-77
2021/05/30 02:57:25;;;;;;;;;46.00;37.33;;;;;20.33;77.12;100595.31;5102459;28;9229;-77
2021/05/30 03:00:20;;;;;;;;;41.00;34.67;;;;;20.48;77.12;100593.34;5122149;27;9373;-77
2021/05/30 03:03:16;;;;;;;;;50.67;39.33;;;;;20.46;76.71;100607.78;5121520;27;9219;-77
2021/05/30 03:06:11;;;;;;;;;43.33;36.67;;;;;20.40;75.85;100602.97;5120775;27;8974;-76
2021/05/30 03:09:07;;;;;;;;;44.33;39.00;;;;;20.22;75.16;100612.13;5135014;27;9194;-78
2021/05/30 03:12:03;;;;;;;;;53.00;44.75;;;;;20.16;74.99;100608.09;5121018;27;9228;-76
2021/05/30 03:14:59;;;;;;;;;49.33;42.33;;;;;20.04;74.83;100618.94;5120706;27;9611;-76
2021/05/30 03:17:54;;;;;;;;;47.00;39.67;;;;;20.35;75.60;100618.19;5134171;27;9328;-76
2021/05/30 03:20:50;;;;;;;;;34.00;31.75;;;;;20.04;73.95;100614.13;5134212;27;9152;-76
2021/05/30 03:23:46;;;;;;;;;38.33;33.00;;;;;20.04;75.55;100608.50;5134266;27;8843;-76
2021/05/30 03:26:42;;;;;;;;;46.00;39.67;;;;;19.89;75.99;100606.84;5120619;27;8950;-77
2021/05/30 03:29:38;;;;;;;;;48.67;41.00;;;;;20.11;75.30;100596.50;5120430;27;9192;-77
2021/05/30 03:32:34;;;;;;;;;53.25;43.00;;;;;19.83;73.34;100602.81;5133806;27;9284;-75
2021/05/30 03:35:29;;;;;;;;;53.50;44.50;;;;;19.84;74.79;100608.03;5119751;27;9854;-76
2021/05/30 03:38:28;;;;;;;;;56.75;45.75;;;;;20.12;75.72;100593.28;5134299;27;9896;-76
2021/05/30 03:41:25;;;;;;;;;47.50;39.50;;;;;20.04;75.39;100605.69;5120022;27;10037;-74
2021/05/30 03:44:21;;;;;;;;;65.75;52.75;;;;;20.19;73.95;100595.28;5120165;27;9748;-76
2021/05/30 03:47:17;;;;;;;;;57.00;48.00;;;;;20.22;73.42;100605.72;5134323;27;10536;-76
2021/05/30 03:50:12;;;;;;;;;63.75;50.00;;;;;20.08;73.46;100608.50;5133866;27;9833;-76
2021/05/30 03:53:08;;;;;;;;;70.25;52.75;;;;;20.24;74.83;100615.38;5133358;27;9768;-77
2021/05/30 03:56:04;;;;;;;;;63.50;48.75;;;;;20.37;74.56;100606.53;5133387;27;9832;-76
2021/05/30 03:59:00;;;;;;;;;69.25;52.75;;;;;20.47;73.65;100608.56;5133303;27;9866;-76
2021/05/30 04:01:55;;;;;;;;;66.25;51.00;;;;;20.48;73.31;100611.00;5134593;27;10071;-76
2021/05/30 04:04:51;;;;;;;;;64.75;50.75;;;;;20.37;72.97;100609.34;5119926;27;10250;-76
2021/05/30 04:07:47;;;;;;;;;52.50;42.25;;;;;20.45;72.65;100605.38;5134327;27;9910;-77
2021/05/30 04:10:44;;;;;;;;;62.75;49.50;;;;;20.44;73.02;100604.56;5133085;27;9601;-77
2021/05/30 04:13:40;;;;;;;;;70.75;54.50;;;;;20.42;73.15;100618.19;5119907;27;10056;-76
2021/05/30 04:16:36;;;;;;;;;66.75;53.75;;;;;20.58;72.75;100615.03;5134564;27;10656;-76
2021/05/30 04:19:32;;;;;;;;;66.00;53.50;;;;;20.45;72.91;100619.41;5119199;27;10509;-76
2021/05/30 04:22:27;;;;;;;;;65.50;52.75;;;;;20.75;73.05;100624.66;5120040;27;10154;-76
2021/05/30 04:25:23;;;;;;;;;60.00;47.75;;;;;20.79;71.73;100620.66;5134280;27;10123;-76
2021/05/30 04:28:19;;;;;;;;;48.00;39.00;;;;;20.80;71.74;100618.63;5120222;27;9918;-76
2021/05/30 04:31:14;;;;;;;;;37.75;32.75;;;;;20.69;71.81;100617.81;5120054;27;8823;-76
2021/05/30 04:34:10;;;;;;;;;39.33;34.67;;;;;20.74;71.94;100628.66;5119130;27;8835;-76
2021/05/30 04:37:06;;;;;;;;;36.25;32.00;;;;;20.86;72.15;100630.28;5119536;27;8902;-77
2021/05/30 04:40:03;;;;;;;;;25.75;25.75;;;;;20.82;71.37;100628.25;5119123;27;8843;-76
2021/05/30 04:42:59;;;;;;;;;26.50;25.75;;;;;20.93;71.55;100630.25;5112626;28;8810;-75
2021/05/30 04:45:54;;;;;;;;;25.25;25.25;;;;;20.98;71.61;100627.03;5125187;27;8838;-76
2021/05/30 04:48:50;;;;;;;;;23.25;22.50;;;;;21.16;72.30;100630.63;5117765;27;8803;-76
2021/05/30 04:51:45;;;;;;;;;27.00;26.75;;;;;21.21;70.17;100629.41;5118399;27;8869;-76
2021/05/30 04:54:41;;;;;;;;;22.25;21.50;;;;;21.44;70.92;100632.59;5116806;27;8873;-75
2021/05/30 04:57:41;;;;;;;;;22.50;22.50;;;;;21.40;69.15;100634.63;5130570;27;8833;-76
2021/05/30 05:00:36;;;;;;;;;43.50;38.00;;;;;21.28;69.23;100626.63;5099057;28;8793;-76
2021/05/30 05:03:35;;;;;;;;;34.00;32.00;;;;;21.29;69.61;100642.28;5117059;27;8819;-76
2021/05/30 05:06:30;;;;;;;;;33.50;32.00;;;;;21.22;68.70;100639.47;5130222;27;8796;-76
2021/05/30 05:09:26;;;;;;;;;26.00;25.25;;;;;21.28;69.16;100649.13;5133292;27;8839;-77
2021/05/30 05:12:22;;;;;;;;;22.50;22.50;;;;;21.27;68.91;100647.50;5134960;27;8927;-76
2021/05/30 05:15:17;;;;;;;;;12.25;11.75;;;;;20.87;68.37;100634.69;5136852;27;8862;-76
2021/05/30 05:18:14;;;;;;;;;13.50;13.50;;;;;21.23;68.90;100629.81;5136271;27;8954;-76
2021/05/30 05:21:10;;;;;;;;;16.50;16.50;;;;;21.62;69.07;100629.72;5135682;27;8838;-76
2021/05/30 05:24:06;;;;;;;;;15.75;15.25;;;;;21.65;68.61;100631.75;5103304;28;8994;-76
2021/05/30 05:27:02;;;;;;;;;9.75;9.75;;;;;21.81;67.47;100629.25;5102583;28;8809;-77
2021/05/30 05:29:57;;;;;;;;;9.25;9.25;;;;;21.87;67.76;100636.06;5116008;28;8837;-77
2021/05/30 05:32:53;;;;;;;;;14.00;14.00;;;;;22.09;67.50;100636.78;5127637;27;8839;-77
2021/05/30 05:35:50;;;;;;;;;11.75;11.00;;;;;22.04;66.53;100633.56;5137075;27;8884;-76
2021/05/30 05:38:46;;;;;;;;;11.50;11.50;;;;;22.07;67.27;100633.53;5136891;27;8843;-77
2021/05/30 05:41:41;;;;;;;;;4.75;4.75;;;;;22.16;66.43;100633.94;5135815;27;8830;-78
2021/05/30 05:44:38;;;;;;;;;6.50;6.50;;;;;22.41;67.32;100633.78;5136140;27;8842;-77
2021/05/30 05:47:37;;;;;;;;;6.75;6.75;;;;;22.28;64.48;100635.47;5103037;28;8848;-76
2021/05/30 05:50:32;;;;;;;;;5.25;5.25;;;;;22.12;63.42;100633.13;5101893;28;9574;-78
2021/05/30 05:53:28;;;;;;;;;7.25;7.25;;;;;22.36;64.42;100641.84;5118133;27;8949;-77
2021/05/30 05:56:24;;;;;;;;;3.60;3.60;;;;;22.30;63.51;100643.50;5116096;28;8838;-76
2021/05/30 05:59:19;;;;;;;;;4.75;4.75;;;;;22.47;63.94;100648.22;5116225;27;8866;-77
2021/05/30 06:02:17;;;;;;;;;7.60;5.80;;;;;22.48;62.82;100653.44;5122490;27;8839;-77
2021/05/30 06:05:17;;;;;;;;;4.00;4.00;;;;;22.51;63.42;100654.63;5122208;27;8924;-77
2021/05/30 06:08:13;;;;;;;;;4.60;4.60;;;;;22.66;63.73;100646.88;5135865;27;8847;-78
2021/05/30 06:11:09;;;;;;;;;5.60;5.60;;;;;22.84;62.93;100655.97;5113645;27;8817;-78
2021/05/30 06:14:04;;;;;;;;;4.80;4.80;;;;;23.14;62.80;100651.72;5093581;28;8829;-79
2021/05/30 06:17:00;;;;;;;;;4.80;4.80;;;;;23.05;61.96;100655.03;5101451;28;8853;-78
2021/05/30 06:19:56;;;;;;;;;4.00;4.00;;;;;23.14;62.10;100654.53;5114194;28;8817;-78
2021/05/30 06:22:55;;;;;;;;;4.00;4.00;;;;;23.28;61.79;100658.00;5115770;28;9562;-78
2021/05/30 06:25:51;;;;;;;;;4.00;4.00;;;;;23.47;61.44;100661.47;5114552;28;8898;-78
2021/05/30 06:28:47;;;;;;;;;3.80;3.80;;;;;23.58;59.34;100660.09;5101269;28;8829;-78
2021/05/30 06:31:42;;;;;;;;;4.00;4.00;;;;;23.50;60.28;100661.41;5101686;28;8872;-79
2021/05/30 06:34:38;;;;;;;;;2.40;2.40;;;;;23.58;60.42;100671.41;5101007;28;8933;-78
2021/05/30 06:37:33;;;;;;;;;4.00;4.00;;;;;23.70;58.86;100680.59;5101507;28;8865;-78
2021/05/30 06:40:29;;;;;;;;;3.60;3.60;;;;;23.89;60.11;100677.13;5101487;28;8849;-79
2021/05/30 06:43:25;;;;;;;;;4.80;4.20;;;;;24.02;60.37;100672.50;5114976;28;8829;-78
2021/05/30 06:46:20;;;;;;;;;1.60;1.60;;;;;24.02;56.24;100683.81;5115075;28;8967;-78
2021/05/30 06:49:16;;;;;;;;;2.00;2.00;;;;;24.08;57.74;100684.94;5114462;28;8909;-78
2021/05/30 06:52:11;;;;;;;;;1.00;1.00;;;;;23.61;53.74;100700.81;5116137;28;8837;-77
2021/05/30 06:55:08;;;;;;;;;0.80;0.80;;;;;23.91;57.16;100693.63;5112575;28;8836;-77
2021/05/30 06:58:03;;;;;;;;;1.20;1.20;;;;;24.10;56.11;100682.50;5093058;28;8837;-78
2021/05/30 07:00:59;;;;;;;;;2.20;2.20;;;;;24.30;55.90;100698.75;5094684;28;8893;-77
2021/05/30 07:03:55;;;;;;;;;0.80;0.80;;;;;24.41;54.86;100696.63;5094515;28;8930;-77
2021/05/30 07:06:50;;;;;;;;;1.60;1.60;;;;;24.53;54.51;100701.69;5113954;28;8837;-77
2021/05/30 07:09:46;;;;;;;;;2.80;1.80;;;;;24.52;52.34;100700.09;5097054;28;8825;-78
2021/05/30 07:12:41;;;;;;;;;1.00;1.00;;;;;24.12;51.91;100713.94;5100357;28;8825;-76
2021/05/30 07:15:37;;;;;;;;;1.00;1.00;;;;;24.36;54.15;100709.22;5115536;28;8902;-76
2021/05/30 07:18:32;;;;;;;;;3.00;3.00;;;;;24.54;54.53;100703.31;5113972;28;8935;-78
2021/05/30 07:21:28;;;;;;;;;0.80;0.80;;;;;24.38;51.45;100703.13;5095256;28;8974;-75
2021/05/30 07:24:23;;;;;;;;;0.20;0.20;;;;;24.33;52.17;100712.91;5093273;28;8878;-77
2021/05/30 07:27:19;;;;;;;;;1.20;1.20;;;;;24.61;53.32;100720.19;5094331;28;8862;-76
2021/05/30 07:30:15;;;;;;;;;1.20;1.20;;;;;24.48;52.26;100718.34;5103201;28;8837;-75
2021/05/30 07:33:11;;;;;;;;;1.00;1.00;;;;;24.57;51.45;100725.06;5114565;28;8848;-75
2021/05/30 07:36:07;;;;;;;;;1.00;1.00;;;;;24.40;50.97;100723.31;5113288;28;9625;-76
2021/05/30 07:39:04;;;;;;;;;0.00;0.00;;;;;24.82;52.37;100729.53;5113498;28;8825;-75
2021/05/30 07:41:59;;;;;;;;;0.20;0.20;;;;;24.73;50.40;100743.44;5113530;28;8910;-75
2021/05/30 07:44:55;;;;;;;;;1.00;1.00;;;;;24.41;50.47;100733.38;5113134;28;8833;-76
2021/05/30 07:47:50;;;;;;;;;1.00;1.00;;;;;24.47;50.30;100736.53;5100240;28;9605;-75
2021/05/30 07:50:47;;;;;;;;;2.00;2.00;;;;;24.77;51.80;100741.34;5099833;28;8924;-76
2021/05/30 07:53:42;;;;;;;;;0.20;0.20;;;;;24.60;50.92;100743.19;5113339;28;8833;-75
2021/05/30 07:56:38;;;;;;;;;1.00;1.00;;;;;24.82;50.72;100752.97;5113576;28;8817;-76
2021/05/30 07:59:34;;;;;;;;;1.20;1.20;;;;;25.17;49.71;100760.13;5113042;28;8921;-76
2021/05/30 08:02:30;;;;;;;;;1.00;1.00;;;;;25.37;50.04;100751.69;5112900;28;8917;-75
2021/05/30 08:05:26;;;;;;;;;3.40;3.40;;;;;25.43;49.83;100766.97;5094341;28;9546;-76
2021/05/30 08:08:22;;;;;;;;;1.60;1.60;;;;;25.44;48.83;100770.59;5093568;28;8844;-74
2021/05/30 08:11:18;;;;;;;;;0.80;0.80;;;;;25.33;48.76;100770.78;5099811;27;8855;-76
2021/05/30 08:14:14;;;;;;;;;0.80;0.80;;;;;25.52;49.28;100772.06;5133347;27;8904;-76
2021/05/30 08:17:10;;;;;;;;;1.80;1.80;;;;;25.76;49.67;100772.88;5133588;27;8947;-76
2021/05/30 08:20:07;;;;;;;;;0.40;0.40;;;;;25.45;50.37;100766.53;5133398;27;8945;-77
2021/05/30 08:23:04;;;;;;;;;0.80;0.80;;;;;25.76;48.46;100770.84;5133736;27;8827;-77
2021/05/30 08:25:59;;;;;;;;;1.60;1.60;;;;;25.93;48.50;100770.94;5117753;27;8843;-77
2021/05/30 08:28:55;;;;;;;;;0.80;0.80;;;;;25.73;45.47;100759.59;5132627;27;8832;-76
2021/05/30 08:31:52;;;;;;;;;4.40;4.40;;;;;25.96;49.40;100768.03;5132811;27;8839;-76
2021/05/30 08:34:48;;;;;;;;;2.40;2.40;;;;;26.42;47.52;100769.13;5119507;27;8858;-77
2021/05/30 08:37:44;;;;;;;;;11.00;11.00;;;;;26.52;47.52;100775.81;5118820;27;8835;-77
2021/05/30 08:40:42;;;;;;;;;3.00;3.00;;;;;26.33;46.53;100771.75;5118959;27;8855;-77
2021/05/30 08:43:37;;;;;;;;;0.80;0.80;;;;;26.36;45.52;100775.72;5132374;27;8823;-76
2021/05/30 08:46:33;;;;;;;;;0.80;0.80;;;;;26.63;44.86;100782.06;5134381;27;8827;-76
2021/05/30 08:49:31;;;;;;;;;3.20;3.20;;;;;26.38;47.65;100776.91;5132119;27;8821;-76
2021/05/30 08:52:27;;;;;;;;;5.20;5.20;;;;;26.49;46.04;100779.53;5116790;28;8964;-75
2021/05/30 08:55:23;;;;;;;;;1.20;1.20;;;;;26.52;45.98;100785.13;5122071;27;8824;-76
2021/05/30 08:58:18;;;;;;;;;1.80;1.80;;;;;26.20;45.33;100782.94;5129318;27;8819;-76
2021/05/30 09:01:25;;;;;;;;;4.00;4.00;;;;;26.78;47.28;100786.16;5123829;27;8831;-76
2021/05/30 09:04:35;;;;;;;;;3.20;3.20;;;;;26.29;46.01;100780.31;5138097;27;8819;-75
2021/05/30 09:07:46;;;;;;;;;2.40;2.40;;;;;26.88;46.32;100776.59;5118358;27;8848;-75
2021/05/30 09:10:52;;;;;;;;;2.20;2.20;;;;;27.18;44.02;100783.22;5137370;27;8839;-76
2021/05/30 09:14:03;;;;;;;;;1.20;1.20;;;;;27.02;43.74;100788.88;5136285;27;8908;-75
2021/05/30 09:17:06;;;;;;;;;2.60;2.60;;;;;27.33;45.35;100789.34;5135398;27;8812;-76
2021/05/30 09:20:05;;;;;;;;;11.80;11.20;;;;;27.24;43.54;100775.78;5136373;27;8908;-75
2021/05/30 09:23:03;;;;;;;;;4.00;4.00;;;;;27.34;44.27;100780.38;5116964;28;8949;-75
2021/05/30 09:26:17;;;;;;;;;2.00;2.00;;;;;27.38;43.56;100783.16;5110596;27;8819;-76
2021/05/30 09:29:12;;;;;;;;;2.00;2.00;;;;;27.85;43.22;100785.59;5136166;27;8831;-75
2021/05/30 09:32:08;;;;;;;;;2.00;2.00;;;;;27.98;42.86;100780.72;5122818;27;8823;-75
2021/05/30 09:35:04;;;;;;;;;0.60;0.60;;;;;27.76;41.44;100774.88;5137372;27;8835;-75
2021/05/30 09:38:03;;;;;;;;;1.00;1.00;;;;;27.67;42.50;100786.84;5136242;27;8847;-75
2021/05/30 09:41:00;;;;;;;;;2.60;2.60;;;;;28.18;42.04;100787.06;5136430;27;8827;-75
2021/05/30 09:43:55;;;;;;;;;2.00;2.00;;;;;28.47;41.34;100787.06;5136354;27;8899;-74
2021/05/30 09:46:51;;;;;;;;;2.00;2.00;;;;;28.41;39.86;100791.72;5136815;27;8831;-74
2021/05/30 09:49:52;;;;;;;;;2.80;2.80;;;;;28.29;42.37;100786.75;5122496;27;8846;-74
2021/05/30 09:52:52;;;;;;;;;1.00;1.00;;;;;28.58;40.87;100797.31;5137189;27;8951;-74
2021/05/30 09:55:48;;;;;;;;;4.00;4.00;;;;;28.57;42.35;100790.84;5136263;27;9066;-74
2021/05/30 09:58:52;;;;;;;;;2.00;2.00;;;;;28.98;39.57;100800.56;5135664;27;8828;-74
2021/05/30 10:01:58;;;;;;;;;2.00;2.00;;;;;28.76;40.51;100797.59;5136318;27;8823;-74
2021/05/30 10:04:54;;;;;;;;;0.60;0.60;;;;;28.61;38.81;100802.13;5135671;27;8915;-74
2021/05/30 10:07:49;;;;;;;;;1.00;1.00;;;;;28.90;39.20;100797.16;5136274;27;8843;-75
2021/05/30 10:10:45;;;;;;;;;0.00;0.00;;;;;28.78;39.88;100795.06;5135538;27;8839;-74
2021/05/30 10:13:41;;;;;;;;;0.80;0.80;;;;;28.63;38.91;100796.75;5135743;27;8847;-74
2021/05/30 10:16:37;;;;;;;;;0.80;0.80;;;;;29.24;39.21;100809.91;5135878;27;8831;-74
2021/05/30 10:19:44;;;;;;;;;1.00;1.00;;;;;29.31;39.15;100803.97;5135874;27;9572;-74
2021/05/30 10:22:42;;;;;;;;;1.00;1.00;;;;;29.44;37.89;100798.25;5135628;27;8863;-73
2021/05/30 10:25:38;;;;;;;;;7.40;6.80;;;;;29.68;36.88;100793.78;5135548;27;8946;-73
2021/05/30 10:28:33;;;;;;;;;1.00;1.00;;;;;29.27;37.64;100804.06;5135306;27;8866;-74
2021/05/30 10:31:35;;;;;;;;;44.80;38.00;;;;;29.61;38.74;100791.19;5121740;27;8949;-74
2021/05/30 10:34:30;;;;;;;;;2.60;2.60;;;;;29.33;38.57;100799.41;5135216;27;8843;-74
2021/05/30 10:37:26;;;;;;;;;0.00;0.00;;;;;29.41;36.75;100811.34;5134775;27;8827;-74
2021/05/30 10:40:22;;;;;;;;;2.00;2.00;;;;;29.36;37.42;100807.03;5135165;27;8847;-74
2021/05/30 10:43:19;;;;;;;;;1.00;1.00;;;;;29.61;37.35;100800.53;5135340;27;8811;-74
2021/05/30 10:46:18;;;;;;;;;12.40;12.40;;;;;29.78;37.53;100794.66;5135351;27;8819;-74
2021/05/30 10:49:13;;;;;;;;;3.00;3.00;;;;;29.45;36.31;100803.50;5134932;27;8824;-73
2021/05/30 10:52:32;;;;;;;;;6.00;6.00;;;;;30.02;37.54;100801.50;5134971;27;8819;-74
2021/05/30 10:55:32;;;;;;;;;3.60;3.60;;;;;29.71;36.68;100806.31;5135063;27;8827;-74
2021/05/30 10:58:29;;;;;;;;;3.00;3.00;;;;;29.78;37.37;100809.72;5134884;27;8827;-74
2021/05/30 11:01:39;;;;;;;;;1.00;1.00;;;;;29.97;36.94;100802.09;5135218;27;8823;-74
2021/05/30 11:04:36;;;;;;;;;2.00;2.00;;;;;30.08;36.14;100804.56;5119425;27;8838;-74
2021/05/30 11:07:32;;;;;;;;;2.40;2.40;;;;;30.21;37.14;100801.69;5135107;27;8815;-74
2021/05/30 11:10:27;;;;;;;;;5.40;5.40;;;;;30.03;37.77;100803.09;5121300;27;8908;-74
2021/05/30 11:13:23;;;;;;;;;1.00;1.00;;;;;29.95;36.44;100801.78;5134832;27;8847;-74
2021/05/30 11:16:21;;;;;;;;;0.40;0.40;;;;;30.06;34.88;100807.06;5120627;27;8827;-74
2021/05/30 11:19:18;;;;;;;;;0.00;0.00;;;;;30.30;33.94;100810.31;5134107;27;8831;-74
2021/05/30 11:22:15;;;;;;;;;4.20;4.20;;;;;30.25;35.62;100800.28;5120912;27;8819;-75
2021/05/30 11:25:11;;;;;;;;;3.80;3.80;;;;;30.66;35.80;100815.47;5120872;27;8839;-74
2021/05/30 11:28:11;;;;;;;;;2.00;2.00;;;;;30.51;34.29;100815.19;5134259;27;8843;-74
2021/05/30 11:31:10;;;;;;;;;1.40;1.40;;;;;30.56;35.71;100817.47;5133961;27;8935;-74
2021/05/30 11:34:07;;;;;;;;;2.40;2.00;;;;;30.69;35.22;100815.34;5120498;27;8838;-74
2021/05/30 11:37:10;;;;;;;;;4.80;4.80;;;;;30.85;35.81;100810.69;5100090;28;8913;-74
2021/05/30 11:40:06;;;;;;;;;1.00;1.00;;;;;30.93;33.69;100829.91;5119684;27;8839;-72
2021/05/30 11:43:16;;;;;;;;;0.40;0.40;;;;;30.37;33.99;100824.31;5133478;27;8846;-72
2021/05/30 11:46:13;;;;;;;;;1.20;1.20;;;;;29.76;34.99;100826.47;5132150;27;8853;-72
2021/05/30 11:49:11;;;;;;;;;1.80;1.80;;;;;29.76;35.16;100820.00;5117481;27;8843;-72
2021/05/30 11:52:15;;;;;;;;;1.00;1.00;;;;;29.33;35.73;100841.34;5131771;27;8831;-72
2021/05/30 11:55:17;;;;;;;;;1.00;1.00;;;;;29.17;35.22;100838.63;5132497;27;8846;-71
2021/05/30 11:58:12;;;;;;;;;0.00;0.00;;;;;29.05;35.55;100841.00;5132116;27;8835;-73
2021/05/30 12:01:09;;;;;;;;;0.20;0.20;;;;;29.95;35.50;100832.34;5128826;27;8823;-72
2021/05/30 12:04:25;;;;;;;;;1.00;1.00;;;;;30.00;36.25;100832.56;5131322;27;9560;-71
2021/05/30 12:07:21;;;;;;;;;1.80;1.80;;;;;30.70;35.94;100839.78;5130736;27;8819;-72
2021/05/30 12:10:17;;;;;;;;;1.20;1.20;;;;;30.63;34.39;100836.38;5132009;27;8957;-73
2021/05/30 12:13:25;;;;;;;;;2.00;2.00;;;;;30.51;34.92;100837.22;5111776;28;8814;-72
2021/05/30 12:16:21;;;;;;;;;0.60;0.60;;;;;29.83;35.91;100837.63;5096591;28;8857;-73
2021/05/30 12:19:42;;;;;;;;;2.80;2.80;;;;;30.49;35.03;100851.97;5112147;28;8886;-73
2021/05/30 12:22:38;;;;;;;;;0.40;0.40;;;;;30.66;33.25;100844.81;5111781;28;8829;-74
2021/05/30 12:25:34;;;;;;;;;1.00;1.00;;;;;31.05;33.99;100848.19;5111392;28;8813;-72
2021/05/30 12:28:35;;;;;;;;;1.00;1.00;;;;;31.37;32.78;100857.56;5111212;28;8834;-72
2021/05/30 12:31:34;;;;;;;;;0.20;0.20;;;;;31.47;33.42;100847.75;5110225;28;9555;-72
2021/05/30 12:34:36;;;;;;;;;2.00;2.00;;;;;31.76;32.39;100850.19;5111441;28;8854;-73
2021/05/30 12:37:41;;;;;;;;;1.60;1.60;;;;;31.69;33.20;100850.50;5111154;28;8813;-73
2021/05/30 12:40:37;;;;;;;;;0.60;0.60;;;;;31.09;34.14;100860.28;5111160;28;9558;-72
2021/05/30 12:43:39;;;;;;;;;1.40;1.40;;;;;30.91;32.49;100866.72;5111228;28;8826;-73
2021/05/30 12:46:37;;;;;;;;;1.40;1.40;;;;;30.88;34.19;100869.69;5095449;28;8933;-73
2021/05/30 12:49:33;;;;;;;;;0.60;0.60;;;;;31.06;32.92;100861.22;5092356;28;8906;-73
2021/05/30 12:52:41;;;;;;;;;1.00;1.00;;;;;30.90;32.37;100858.59;5092199;28;8847;-73
2021/05/30 12:55:40;;;;;;;;;0.80;0.80;;;;;30.88;31.48;100858.25;5091092;28;8816;-73
2021/05/30 12:58:36;;;;;;;;;2.00;2.00;;;;;30.29;35.12;100860.88;5110942;28;8865;-73
2021/05/30 13:01:36;;;;;;;;;1.00;1.00;;;;;29.75;35.29;100855.41;5112378;28;8835;-73
2021/05/30 13:04:34;;;;;;;;;1.00;1.00;;;;;29.57;35.76;100862.53;5111844;28;8833;-73
2021/05/30 13:07:32;;;;;;;;;1.00;1.00;;;;;29.69;34.50;100877.22;5112590;28;8953;-73
2021/05/30 13:10:27;;;;;;;;;0.20;0.20;;;;;30.12;33.88;100863.09;5099507;28;8841;-75
2021/05/30 13:13:42;;;;;;;;;1.20;1.20;;;;;29.99;34.61;100867.25;5098342;28;8925;-75
2021/05/30 13:16:38;;;;;;;;;1.40;1.40;;;;;29.62;35.11;100870.50;5112029;28;8900;-73
2021/05/30 13:19:33;;;;;;;;;2.00;2.00;;;;;30.05;36.55;100869.00;5112123;28;8863;-73
2021/05/30 13:22:29;;;;;;;;;1.00;1.00;;;;;29.33;32.92;100869.81;5111877;28;8831;-72
2021/05/30 13:25:27;;;;;;;;;1.60;1.60;;;;;29.74;34.70;100865.22;5111953;28;8853;-72
2021/05/30 13:28:29;;;;;;;;;1.00;1.00;;;;;29.41;37.32;100871.19;5111717;28;8858;-72
2021/05/30 13:31:26;;;;;;;;;5.00;3.60;;;;;29.04;35.17;100872.75;5111829;28;8866;-71
2021/05/30 13:34:22;;;;;;;;;2.00;2.00;;;;;29.29;36.69;100866.28;5115815;28;8833;-72
2021/05/30 13:37:18;;;;;;;;;3.00;3.00;;;;;29.23;35.50;100879.50;5114883;28;8842;-72
2021/05/30 13:40:13;;;;;;;;;0.00;0.00;;;;;29.65;37.16;100879.38;5115516;28;8835;-73
2021/05/30 13:43:10;;;;;;;;;2.80;2.80;;;;;29.22;35.30;100880.78;5101901;28;8815;-72
2021/05/30 13:46:07;;;;;;;;;1.00;1.00;;;;;28.62;36.04;100880.53;5115194;28;8842;-72